createdAt,value
2023-04-03T00:01:29.781Z,3.90
2023-04-03T00:03:57.946Z,3.90
2023-04-03T00:06:27.351Z,4.10
2023-04-03T00:08:55.505Z,4.90
2023-04-03T00:11:26.315Z,3.90
2023-04-03T00:13:54.367Z,3.80
2023-04-03T00:16:22.698Z,4.20
2023-04-03T00:18:50.754Z,3.80
2023-04-03T00:21:18.855Z,3.80
2023-04-03T00:23:46.908Z,3.80
2023-04-03T00:26:14.923Z,3.80
2023-04-03T00:28:44.620Z,3.90
2023-04-03T00:31:12.714Z,3.80
2023-04-03T00:33:40.709Z,3.80
2023-04-03T00:36:11.578Z,3.80
2023-04-03T00:38:40.002Z,3.80
2023-04-03T00:41:09.024Z,3.80
2023-04-03T00:43:37.382Z,3.80
2023-04-03T00:46:09.348Z,4.20
2023-04-03T00:48:44.074Z,3.80
2023-04-03T00:51:15.530Z,3.80
2023-04-03T00:53:48.381Z,3.80
2023-04-03T00:56:20.456Z,3.80
2023-04-03T00:58:52.662Z,3.80
2023-04-03T01:01:26.104Z,4.00
2023-04-03T01:04:02.093Z,3.60
2023-04-03T01:06:34.030Z,3.50
2023-04-03T01:09:09.626Z,3.70
2023-04-03T01:11:39.766Z,3.20
2023-04-03T01:14:08.226Z,3.00
2023-04-03T01:16:40.743Z,3.00
2023-04-03T01:19:15.637Z,2.80
2023-04-03T01:22:18.144Z,2.90
2023-04-03T01:24:48.248Z,2.70
2023-04-03T01:27:16.535Z,2.60
2023-04-03T01:29:48.406Z,3.10
2023-04-03T01:32:17.769Z,2.50
2023-04-03T01:34:46.223Z,2.50
2023-04-03T01:37:14.677Z,2.50
2023-04-03T01:39:42.746Z,2.40
2023-04-03T01:42:11.548Z,2.40
2023-04-03T01:44:43.133Z,2.30
2023-04-03T01:47:13.392Z,2.70
2023-04-03T01:49:43.983Z,2.20
2023-04-03T01:52:12.653Z,2.10
2023-04-03T01:54:40.931Z,2.60
2023-04-03T01:57:09.936Z,2.50
2023-04-03T01:59:38.650Z,2.00
2023-04-03T02:02:09.254Z,1.90
2023-04-03T02:04:37.946Z,1.90
2023-04-03T02:07:10.613Z,1.90
2023-04-03T02:09:39.513Z,1.90
2023-04-03T02:12:08.619Z,1.80
2023-04-03T02:14:36.765Z,1.80
2023-04-03T02:17:09.640Z,1.80
2023-04-03T02:19:38.214Z,1.80
2023-04-03T02:22:08.079Z,1.80
2023-04-03T02:24:36.284Z,1.80
2023-04-03T02:27:04.936Z,1.80
2023-04-03T02:29:32.941Z,1.80
2023-04-03T02:32:01.070Z,2.10
2023-04-03T02:34:29.707Z,1.80
2023-04-03T02:37:00.507Z,2.30
2023-04-03T02:39:32.890Z,1.60
2023-04-03T02:42:01.993Z,1.60
2023-04-03T02:44:30.601Z,1.60
2023-04-03T02:46:58.617Z,1.60
2023-04-03T02:49:26.649Z,1.60
2023-04-03T02:51:54.819Z,1.90
2023-04-03T02:54:24.219Z,1.60
2023-04-03T02:56:56.915Z,1.50
2023-04-03T02:59:25.178Z,1.50
2023-04-03T03:01:53.525Z,1.50
2023-04-03T03:04:22.876Z,1.50
2023-04-03T03:06:51.919Z,1.40
2023-04-03T03:09:20.661Z,1.40
2023-04-03T03:11:48.755Z,1.40
2023-04-03T03:14:18.387Z,1.50
2023-04-03T03:16:46.927Z,1.30
2023-04-03T03:19:15.350Z,1.30
2023-04-03T03:21:43.695Z,1.60
2023-04-03T03:24:12.957Z,1.40
2023-04-03T03:26:41.199Z,1.30
2023-04-03T03:29:09.229Z,1.30
2023-04-03T03:31:38.658Z,1.20
2023-04-03T03:34:10.236Z,1.20
2023-04-03T03:36:38.329Z,1.20
2023-04-03T03:39:06.593Z,1.20
2023-04-03T03:41:35.052Z,1.20
2023-04-03T03:44:03.308Z,1.20
2023-04-03T03:46:34.351Z,1.10
2023-04-03T03:49:03.874Z,1.10
2023-04-03T03:51:32.081Z,1.10
2023-04-03T03:54:00.543Z,1.20
2023-04-03T03:56:29.194Z,1.30
2023-04-03T03:58:58.135Z,1.30
2023-04-03T04:01:27.048Z,1.30
2023-04-03T04:03:57.512Z,1.30
2023-04-03T04:06:31.813Z,1.30
2023-04-03T04:09:04.188Z,1.30
2023-04-03T04:11:33.435Z,1.30
2023-04-03T04:14:02.204Z,1.30
2023-04-03T04:16:31.770Z,1.30
2023-04-03T04:19:07.718Z,1.30
2023-04-03T04:21:40.647Z,1.30
2023-04-03T04:24:10.043Z,1.20
2023-04-03T04:26:39.022Z,1.20
2023-04-03T04:29:08.178Z,1.20
2023-04-03T04:31:37.697Z,1.10
2023-04-03T04:34:06.147Z,1.10
2023-04-03T04:36:37.863Z,1.00
2023-04-03T04:39:08.649Z,1.00
2023-04-03T04:41:36.882Z,1.00
2023-04-03T04:44:07.728Z,0.90
2023-04-03T04:46:37.384Z,0.90
2023-04-03T04:49:07.221Z,0.80
2023-04-03T04:51:51.493Z,1.30
2023-04-03T04:54:27.708Z,0.80
2023-04-03T04:57:13.394Z,0.80
2023-04-03T04:59:55.974Z,0.80
2023-04-03T05:03:15.973Z,0.70
2023-04-03T05:06:01.156Z,0.70
2023-04-03T05:08:33.753Z,0.70
2023-04-03T05:11:02.937Z,0.80
2023-04-03T05:13:32.831Z,0.70
2023-04-03T05:16:01.110Z,0.70
2023-04-03T05:18:30.215Z,0.70
2023-04-03T05:21:00.968Z,0.70
2023-04-03T05:23:29.072Z,0.70
2023-04-03T05:26:01.238Z,0.70
2023-04-03T05:28:30.815Z,0.70
2023-04-03T05:31:00.318Z,1.20
2023-04-03T05:33:37.692Z,0.70
2023-04-03T05:36:09.195Z,0.70
2023-04-03T05:38:43.299Z,0.70
2023-04-03T05:41:13.627Z,1.30
2023-04-03T05:43:42.454Z,0.70
2023-04-03T05:46:13.685Z,1.70
2023-04-03T05:48:44.429Z,0.80
2023-04-03T05:51:18.666Z,0.90
2023-04-03T05:53:49.517Z,0.90
2023-04-03T05:56:21.451Z,0.90
2023-04-03T05:58:49.815Z,1.20
2023-04-03T06:01:18.073Z,1.10
2023-04-03T06:03:47.005Z,1.10
2023-04-03T06:06:16.405Z,1.80
2023-04-03T06:08:44.612Z,1.40
2023-04-03T06:11:13.591Z,1.50
2023-04-03T06:13:43.003Z,2.40
2023-04-03T06:16:11.771Z,1.70
2023-04-03T06:18:42.317Z,2.20
2023-04-03T06:21:11.116Z,1.80
2023-04-03T06:23:39.179Z,2.00
2023-04-03T06:26:11.187Z,1.90
2023-04-03T06:28:39.828Z,2.00
2023-04-03T06:31:09.818Z,2.40
2023-04-03T06:33:37.953Z,2.10
2023-04-03T06:36:07.667Z,2.20
2023-04-03T06:38:36.299Z,2.30
2023-04-03T06:41:04.379Z,2.40
2023-04-03T06:43:34.800Z,2.40
2023-04-03T06:46:03.573Z,2.50
2023-04-03T06:48:33.382Z,2.60
2023-04-03T06:51:01.477Z,2.70
2023-04-03T06:53:29.845Z,3.00
2023-04-03T06:55:57.891Z,2.80
2023-04-03T06:58:25.916Z,2.90
2023-04-03T07:00:53.949Z,2.90
2023-04-03T07:03:22.183Z,3.00
2023-04-03T07:05:51.560Z,3.10
2023-04-03T07:08:20.526Z,3.10
2023-04-03T07:10:48.681Z,3.20
2023-04-03T07:13:16.777Z,3.30
2023-04-03T07:15:45.674Z,3.30
2023-04-03T07:18:14.021Z,3.40
2023-04-03T07:20:42.443Z,3.40
2023-04-03T07:23:12.718Z,3.50
2023-04-03T07:25:45.046Z,3.50
2023-04-03T07:28:14.428Z,3.60
2023-04-03T07:30:46.840Z,3.60
2023-04-03T07:33:16.943Z,3.70
2023-04-03T07:35:45.752Z,3.80
2023-04-03T07:38:15.349Z,3.80
2023-04-03T07:40:48.522Z,4.10
2023-04-03T07:43:16.715Z,4.00
2023-04-03T07:45:45.509Z,4.10
2023-04-03T07:48:14.922Z,4.10
2023-04-03T07:50:43.908Z,4.20
2023-04-03T07:53:12.291Z,4.30
2023-04-03T07:55:44.720Z,4.30
2023-04-03T07:58:13.032Z,4.40
2023-04-03T08:00:41.784Z,4.40
2023-04-03T08:03:12.921Z,4.50
2023-04-03T08:05:42.539Z,4.60
2023-04-03T08:08:12.737Z,4.70
2023-04-03T08:10:42.336Z,4.90
2023-04-03T08:13:11.429Z,5.10
2023-04-03T08:15:39.976Z,5.20
2023-04-03T08:18:08.506Z,5.20
2023-04-03T08:20:36.563Z,5.10
2023-04-03T08:23:04.706Z,5.00
2023-04-03T08:25:32.781Z,4.80
2023-04-03T08:28:02.968Z,4.80
2023-04-03T08:30:31.410Z,4.70
2023-04-03T08:32:59.604Z,4.80
2023-04-03T08:35:27.888Z,4.80
2023-04-03T08:37:56.215Z,4.90
2023-04-03T08:40:25.469Z,4.90
2023-04-03T08:43:22.369Z,4.90
2023-04-03T08:45:54.338Z,5.00
2023-04-03T08:48:26.093Z,5.00
2023-04-03T08:50:56.753Z,4.90
2023-04-03T08:53:29.514Z,5.00
2023-04-03T08:55:58.880Z,5.40
2023-04-03T08:58:30.248Z,5.20
2023-04-03T09:01:01.872Z,5.60
2023-04-03T09:03:32.935Z,5.80
2023-04-03T09:06:07.310Z,5.90
2023-04-03T09:08:42.586Z,6.10
2023-04-03T09:11:18.500Z,6.10
2023-04-03T09:13:56.514Z,6.20
2023-04-03T09:16:35.674Z,6.20
2023-04-03T09:19:15.680Z,6.30
2023-04-03T09:21:44.044Z,6.30
2023-04-03T09:24:15.377Z,6.30
2023-04-03T09:26:49.647Z,6.10
2023-04-03T09:29:23.441Z,5.90
2023-04-03T09:31:54.782Z,5.80
2023-04-03T09:34:27.394Z,5.80
2023-04-03T09:36:58.124Z,5.80
2023-04-03T09:39:29.198Z,5.70
2023-04-03T09:42:00.512Z,5.70
2023-04-03T09:44:37.927Z,5.70
2023-04-03T09:47:21.814Z,5.90
2023-04-03T09:49:50.224Z,5.80
2023-04-03T09:52:23.052Z,5.80
2023-04-03T09:54:51.257Z,5.90
2023-04-03T09:57:20.115Z,5.80
2023-04-03T10:00:00.365Z,5.80
2023-04-03T10:02:36.655Z,5.90
2023-04-03T10:05:09.882Z,6.20
2023-04-03T10:07:44.448Z,6.30
2023-04-03T10:10:24.952Z,6.30
2023-04-03T10:13:08.203Z,6.20
2023-04-03T10:15:45.032Z,6.20
2023-04-03T10:18:31.465Z,6.20
2023-04-03T10:21:09.693Z,6.40
2023-04-03T10:23:46.790Z,6.40
2023-04-03T10:26:27.305Z,6.30
2023-04-03T10:29:04.086Z,6.30
2023-04-03T10:31:39.062Z,6.30
2023-04-03T10:34:11.681Z,6.70
2023-04-03T10:36:47.834Z,6.60
2023-04-03T10:39:29.971Z,6.70
2023-04-03T10:42:13.321Z,6.80
2023-04-03T10:44:54.779Z,6.80
2023-04-03T10:47:31.972Z,6.90
2023-04-03T10:50:13.937Z,7.60
2023-04-03T10:52:49.732Z,7.40
2023-04-03T10:55:33.195Z,7.50
2023-04-03T10:58:03.433Z,7.60
2023-04-03T11:00:41.031Z,7.60
2023-04-03T11:03:15.918Z,7.70
2023-04-03T11:05:47.374Z,8.00
2023-04-03T11:08:23.977Z,8.30
2023-04-03T11:10:54.646Z,8.60
2023-04-03T11:13:27.070Z,8.90
2023-04-03T11:15:56.867Z,8.30
2023-04-03T11:18:33.941Z,8.50
2023-04-03T11:21:08.490Z,8.50
2023-04-03T11:23:48.953Z,8.40
2023-04-03T11:26:19.510Z,8.40
2023-04-03T11:28:48.291Z,8.50
2023-04-03T11:31:40.316Z,8.70
2023-04-03T11:34:24.218Z,8.80
2023-04-03T11:36:56.226Z,9.00
2023-04-03T11:39:28.311Z,9.20
2023-04-03T11:42:06.807Z,9.20
2023-04-03T11:44:42.561Z,8.80
2023-04-03T11:47:12.714Z,8.30
2023-04-03T11:50:01.655Z,8.00
2023-04-03T11:53:06.121Z,7.90
2023-04-03T11:55:55.786Z,7.70
2023-04-03T11:58:24.836Z,8.10
2023-04-03T12:00:56.918Z,7.60
2023-04-03T12:04:09.845Z,7.40
2023-04-03T12:07:10.990Z,7.20
2023-04-03T12:10:30.906Z,7.10
2023-04-03T12:13:04.881Z,7.30
2023-04-03T12:15:58.486Z,7.40
2023-04-03T12:19:01.202Z,7.40
2023-04-03T12:22:08.935Z,7.60
2023-04-03T12:24:40.152Z,7.90
2023-04-03T12:27:29.891Z,8.20
2023-04-03T12:30:18.376Z,8.30
2023-04-03T12:33:21.090Z,8.40
2023-04-03T12:36:01.782Z,8.70
2023-04-03T12:39:06.071Z,8.30
2023-04-03T12:41:41.127Z,8.00
2023-04-03T12:44:25.326Z,8.00
2023-04-03T12:46:55.329Z,7.50
2023-04-03T12:49:39.510Z,7.50
2023-04-03T12:52:18.729Z,7.60
2023-04-03T12:54:48.567Z,7.60
2023-04-03T12:57:20.396Z,7.40
2023-04-03T12:59:52.730Z,7.30
2023-04-03T13:02:26.626Z,7.10
2023-04-03T13:04:58.806Z,6.90
2023-04-03T13:07:32.651Z,6.80
2023-04-03T13:10:15.578Z,6.90
2023-04-03T13:12:49.396Z,7.30
2023-04-03T13:15:21.526Z,7.50
2023-04-03T13:17:53.456Z,7.90
2023-04-03T13:20:27.778Z,8.00
2023-04-03T13:23:00.650Z,8.10
2023-04-03T13:25:31.831Z,9.40
2023-04-03T13:28:12.544Z,8.10
2023-04-03T13:30:56.005Z,8.20
2023-04-03T13:33:26.924Z,8.40
2023-04-03T13:35:59.856Z,8.70
2023-04-03T13:38:32.485Z,8.70
2023-04-03T13:41:04.131Z,8.40
2023-04-03T13:43:34.421Z,8.20
2023-04-03T13:46:24.722Z,8.00
2023-04-03T13:48:54.513Z,7.90
2023-04-03T13:51:25.559Z,8.00
2023-04-03T13:53:57.076Z,8.10
2023-04-03T13:56:33.573Z,8.00
2023-04-03T13:59:09.254Z,7.80
2023-04-03T14:01:45.692Z,8.00
2023-04-03T14:04:19.611Z,8.00
2023-04-03T14:06:48.406Z,8.50
2023-04-03T14:09:18.955Z,8.80
2023-04-03T14:11:48.828Z,8.90
2023-04-03T14:14:20.287Z,8.80
2023-04-03T14:16:53.361Z,8.60
2023-04-03T14:19:25.129Z,8.40
2023-04-03T14:21:56.301Z,8.20
2023-04-03T14:24:25.749Z,8.40
2023-04-03T14:26:54.825Z,8.70
2023-04-03T14:29:24.196Z,8.90
2023-04-03T14:32:03.595Z,9.10
2023-04-03T14:34:39.910Z,9.10
2023-04-03T14:37:11.399Z,8.90
2023-04-03T14:39:39.999Z,8.80
2023-04-03T14:42:08.514Z,8.70
2023-04-03T14:44:36.835Z,8.60
2023-04-03T14:47:08.362Z,8.80
2023-04-03T14:49:42.240Z,8.80
2023-04-03T14:52:21.081Z,8.90
2023-04-03T14:54:49.272Z,8.70
2023-04-03T14:57:18.507Z,8.40
2023-04-03T14:59:47.961Z,8.30
2023-04-03T15:02:32.122Z,8.20
2023-04-03T15:05:03.961Z,8.20
2023-04-03T15:07:34.778Z,8.10
2023-04-03T15:10:05.767Z,8.10
2023-04-03T15:12:33.809Z,7.90
2023-04-03T15:15:03.608Z,7.80
2023-04-03T15:17:33.659Z,7.70
2023-04-03T15:20:02.319Z,7.90
2023-04-03T15:22:31.219Z,8.10
2023-04-03T15:24:59.414Z,8.20
2023-04-03T15:27:29.954Z,8.10
2023-04-03T15:29:57.954Z,8.20
2023-04-03T15:32:26.200Z,7.90
2023-04-03T15:34:56.838Z,7.90
2023-04-03T15:37:27.101Z,7.90
2023-04-03T15:39:55.456Z,7.80
2023-04-03T15:42:23.554Z,7.90
2023-04-03T15:44:51.660Z,7.80
2023-04-03T15:47:21.422Z,7.90
2023-04-03T15:49:49.532Z,7.70
2023-04-03T15:52:18.885Z,7.70
2023-04-03T15:54:46.934Z,7.90
2023-04-03T15:57:14.979Z,8.00
2023-04-03T15:59:43.159Z,8.10
2023-04-03T16:02:14.953Z,8.10
2023-04-03T16:04:43.356Z,8.00
2023-04-03T16:07:12.010Z,7.90
2023-04-03T16:09:41.689Z,7.60
2023-04-03T16:12:09.794Z,7.30
2023-04-03T16:14:37.813Z,7.00
2023-04-03T16:17:06.114Z,7.00
2023-04-03T16:19:34.306Z,6.90
2023-04-03T16:22:05.317Z,7.10
2023-04-03T16:24:33.815Z,7.00
2023-04-03T16:27:03.331Z,7.10
2023-04-03T16:29:31.484Z,7.20
2023-04-03T16:32:00.451Z,7.20
2023-04-03T16:34:31.065Z,7.10
2023-04-03T16:36:59.420Z,7.10
2023-04-03T16:39:28.294Z,6.90
2023-04-03T16:41:56.603Z,6.80
2023-04-03T16:44:26.133Z,7.50
2023-04-03T16:46:54.252Z,7.20
2023-04-03T16:49:22.400Z,6.80
2023-04-03T16:51:51.357Z,6.80
2023-04-03T16:54:19.424Z,6.70
2023-04-03T16:56:47.532Z,6.80
2023-04-03T16:59:15.680Z,7.10
2023-04-03T17:01:45.458Z,6.80
2023-04-03T17:04:13.921Z,6.90
2023-04-03T17:06:42.730Z,6.80
2023-04-03T17:09:11.794Z,6.80
2023-04-03T17:11:40.200Z,6.70
2023-04-03T17:14:09.508Z,6.70
2023-04-03T17:16:39.652Z,6.60
2023-04-03T17:19:09.526Z,6.50
2023-04-03T17:21:38.093Z,6.70
2023-04-03T17:24:09.530Z,6.40
2023-04-03T17:26:38.884Z,6.40
2023-04-03T17:29:07.044Z,6.40
2023-04-03T17:31:35.280Z,6.40
2023-04-03T17:34:03.416Z,6.30
2023-04-03T17:36:34.935Z,6.30
2023-04-03T17:39:03.079Z,6.30
2023-04-03T17:41:31.216Z,6.20
2023-04-03T17:44:01.362Z,6.20
2023-04-03T17:46:30.983Z,6.10
2023-04-03T17:49:00.466Z,6.10
2023-04-03T17:51:29.108Z,6.10
2023-04-03T17:53:58.575Z,5.90
2023-04-03T17:56:28.067Z,5.80
2023-04-03T17:58:58.256Z,5.70
2023-04-03T18:01:30.016Z,5.60
2023-04-03T18:04:01.974Z,5.50
2023-04-03T18:06:33.165Z,5.40
2023-04-03T18:09:09.537Z,5.30
2023-04-03T18:11:38.004Z,5.30
2023-04-03T18:14:07.624Z,5.20
2023-04-03T18:16:36.209Z,5.00
2023-04-03T18:19:21.155Z,5.20
2023-04-03T18:21:52.235Z,5.00
2023-04-03T18:24:23.997Z,5.00
2023-04-03T18:26:57.909Z,6.00
2023-04-03T18:29:26.313Z,4.90
2023-04-03T18:31:56.891Z,4.80
2023-04-03T18:34:25.263Z,4.80
2023-04-03T18:36:53.584Z,5.30
2023-04-03T18:39:24.731Z,5.00
2023-04-03T18:41:53.621Z,4.70
2023-04-03T18:44:25.597Z,4.70
2023-04-03T18:46:56.653Z,4.70
2023-04-03T18:49:25.231Z,4.60
2023-04-03T18:51:56.340Z,4.50
2023-04-03T18:54:26.374Z,4.60
2023-04-03T18:56:54.626Z,4.50
2023-04-03T18:59:27.494Z,4.40
2023-04-03T19:01:56.773Z,4.40
2023-04-03T19:04:25.577Z,4.30
2023-04-03T19:06:54.579Z,4.30
2023-04-03T19:09:27.640Z,4.40
2023-04-03T19:11:55.798Z,4.20
2023-04-03T19:14:23.876Z,4.20
2023-04-03T19:16:52.243Z,4.10
2023-04-03T19:19:20.405Z,5.00
2023-04-03T19:21:48.529Z,4.10
2023-04-03T19:24:18.772Z,4.00
2023-04-03T19:26:48.728Z,4.00
2023-04-03T19:29:17.637Z,4.30
2023-04-03T19:31:45.983Z,3.90
2023-04-03T19:34:16.347Z,3.90
2023-04-03T19:36:45.827Z,3.90
2023-04-03T19:39:15.599Z,3.80
2023-04-03T19:41:46.119Z,3.90
2023-04-03T19:44:15.668Z,3.70
2023-04-03T19:46:51.223Z,3.70
2023-04-03T19:49:20.583Z,3.70
2023-04-03T19:51:49.067Z,3.70
2023-04-03T19:54:17.560Z,3.60
2023-04-03T19:56:49.543Z,3.50
2023-04-03T19:59:19.069Z,4.00
2023-04-03T20:01:47.466Z,3.70
2023-04-03T20:04:15.653Z,3.30
2023-04-03T20:06:44.114Z,3.30
2023-04-03T20:09:12.668Z,3.70
2023-04-03T20:11:41.332Z,3.30
2023-04-03T20:14:09.895Z,3.20
2023-04-03T20:16:39.520Z,3.20
2023-04-03T20:19:07.749Z,3.20
2023-04-03T20:21:36.380Z,3.20
2023-04-03T20:24:10.684Z,3.10
2023-04-03T20:26:46.016Z,3.10
2023-04-03T20:29:16.585Z,3.10
2023-04-03T20:31:46.767Z,3.00
2023-04-03T20:34:16.257Z,3.00
2023-04-03T20:36:48.018Z,3.00
2023-04-03T20:39:18.917Z,3.00
2023-04-03T20:41:47.390Z,3.30
2023-04-03T20:44:17.644Z,3.00
2023-04-03T20:46:52.763Z,3.30
2023-04-03T20:49:22.025Z,3.30
2023-04-03T20:51:53.005Z,2.90
2023-04-03T20:54:21.244Z,2.90
2023-04-03T20:56:50.349Z,2.90
2023-04-03T20:59:19.147Z,2.80
2023-04-03T21:01:48.949Z,3.10
2023-04-03T21:04:24.740Z,3.00
2023-04-03T21:07:30.133Z,2.70
2023-04-03T21:10:35.801Z,2.60
2023-04-03T21:13:41.408Z,2.60
2023-04-03T21:16:09.384Z,2.60
2023-04-03T21:18:55.167Z,2.60
2023-04-03T21:21:25.981Z,2.50
2023-04-03T21:23:55.190Z,2.50
2023-04-03T21:26:26.386Z,2.50
2023-04-03T21:28:55.459Z,2.40
2023-04-03T21:31:24.027Z,2.40
2023-04-03T21:33:53.596Z,2.30
2023-04-03T21:36:21.727Z,2.30
2023-04-03T21:38:51.579Z,2.30
2023-04-03T21:41:19.629Z,2.20
2023-04-03T21:43:48.536Z,2.20
2023-04-03T21:46:17.146Z,2.20
2023-04-03T21:48:47.167Z,2.20
2023-04-03T21:51:17.363Z,2.10
2023-04-03T21:53:46.163Z,2.60
2023-04-03T21:56:14.527Z,2.40
2023-04-03T21:58:42.637Z,2.00
2023-04-03T22:01:13.120Z,1.90
2023-04-03T22:03:42.852Z,1.90
2023-04-03T22:06:11.580Z,2.20
2023-04-03T22:08:41.343Z,2.00
2023-04-03T22:11:12.396Z,1.80
2023-04-03T22:13:40.548Z,1.80
2023-04-03T22:16:12.341Z,1.80
2023-04-03T22:18:40.449Z,1.70
2023-04-03T22:21:08.574Z,1.70
2023-04-03T22:23:37.610Z,1.60
2023-04-03T22:26:10.070Z,1.60
2023-04-03T22:28:39.881Z,1.50
2023-04-03T22:31:08.708Z,1.50
2023-04-03T22:33:37.432Z,1.50
2023-04-03T22:36:06.699Z,1.40
2023-04-03T22:38:37.982Z,1.40
2023-04-03T22:41:08.389Z,1.40
2023-04-03T22:43:38.127Z,1.40
2023-04-03T22:46:08.319Z,1.40
2023-04-03T22:48:39.261Z,1.40
2023-04-03T22:51:08.668Z,1.30
2023-04-03T22:53:36.939Z,1.30
2023-04-03T22:56:10.974Z,1.30
2023-04-03T22:58:39.504Z,1.30
2023-04-03T23:01:09.431Z,1.20
2023-04-03T23:03:38.977Z,1.20
2023-04-03T23:06:07.992Z,1.50
2023-04-03T23:08:38.040Z,1.10
2023-04-03T23:11:09.492Z,1.60
2023-04-03T23:13:37.889Z,1.00
2023-04-03T23:16:06.806Z,1.10
2023-04-03T23:18:39.688Z,1.10
2023-04-03T23:21:09.309Z,1.00
2023-04-03T23:23:37.631Z,1.00
2023-04-03T23:26:09.274Z,1.40
2023-04-03T23:28:37.454Z,1.00
2023-04-03T23:31:07.736Z,1.00
2023-04-03T23:33:36.279Z,1.00
2023-04-03T23:36:08.374Z,1.00
2023-04-03T23:38:37.508Z,1.00
2023-04-03T23:41:07.369Z,1.00
2023-04-03T23:43:35.585Z,1.00
2023-04-03T23:46:04.819Z,0.90
2023-04-03T23:48:37.610Z,0.90
2023-04-03T23:51:05.688Z,0.90
2023-04-03T23:53:33.831Z,0.80
2023-04-03T23:56:02.184Z,1.10
2023-04-03T23:58:31.670Z,0.80
